»·PEaware :: N335AK KMFR-KSAC

N335AK :: KMFR-KSAC

FLIGHT INFORMATION

Flight Status: Arrived
Operator: Privately registered:
United States
More flights under this callsign
Pilot: Gabor H. (24209)
Aircraft: Unknown
(EPIC)
More flights by this aircraft type
Origin: KMFR Rogue Valley Intl-Medford
United States
Destination: KSAC Sacramento Executive
United States
More flights between these airports :: More routes between these airports
Route: +BRUTE7 TALEM V23 SAC
File this flight plan on PilotEdge
Remarks:
Altitude:
(Current/Filed)
23,000ft
Speed:
(Current/Filed)
325kts
Departed: 29-Sep-20 11:24 AM
Arrived: 29-Sep-20 12:20 PM
Distance/Time
Traveled:
240nm/0:56
Distance/Time
To Go:
Arrived

Flight Plot

Page will automatically refresh every two minutes.

Flight plan parsing failed; only flown route is shown


Map Options




Map Legend


Flown Route
Filed Route
Departure Airport
Arrival Airport
Navaid (VOR, NDB)
Fix

Horizontal Profiles

Position Reports

Time Latitude Longitude Heading Altitude Ground
Speed
29-Sep-20 11:07 42.371837 -122.878225 111 1316ft 0kts
29-Sep-20 11:08 42.371837 -122.878225 111 1316ft 0kts
29-Sep-20 11:09 42.371837 -122.878225 111 1316ft 0kts
29-Sep-20 11:10 42.371837 -122.878225 111 1316ft 0kts
29-Sep-20 11:11 42.371837 -122.878225 111 1316ft 0kts
29-Sep-20 11:12 42.371837 -122.878225 111 1316ft 0kts
29-Sep-20 11:13 42.371837 -122.878225 111 1316ft 0kts
29-Sep-20 11:14 42.371837 -122.878225 111 1316ft 0kts
29-Sep-20 11:15 42.371837 -122.878225 111 1316ft 0kts
29-Sep-20 11:16 42.371837 -122.878225 111 1316ft 0kts
29-Sep-20 11:17 42.371837 -122.878225 111 1316ft 0kts
29-Sep-20 11:18 42.372869 -122.878099 29 1314ft 7kts
29-Sep-20 11:19 42.373540 -122.875266 2 1315ft 17kts
29-Sep-20 11:20 42.377863 -122.876512 340 1309ft 10kts
29-Sep-20 11:20 42.380212 -122.877660 336 1308ft 12kts
29-Sep-20 11:22 42.385424 -122.880377 341 1297ft 10kts
29-Sep-20 11:23 42.385973 -122.879047 135 1298ft 11kts
29-Sep-20 11:23 42.363287 -122.866693 171 2065ft 178kts
29-Sep-20 11:24 42.356595 -122.909707 346 5369ft 176kts
29-Sep-20 11:26 42.392188 -122.852346 79 8214ft 215kts
29-Sep-20 11:26 42.400500 -122.783339 81 10153ft 228kts
29-Sep-20 11:27 42.398333 -122.698924 115 12507ft 234kts
29-Sep-20 11:28 42.361403 -122.628745 166 14590ft 245kts
29-Sep-20 11:29 42.301859 -122.674682 223 16342ft 264kts
29-Sep-20 11:30 42.258026 -122.755896 241 17865ft 274kts
29-Sep-20 11:31 42.233293 -122.854151 259 19196ft 280kts
29-Sep-20 11:32 42.176961 -122.886692 146 20268ft 272kts
29-Sep-20 11:33 42.100295 -122.873307 173 21242ft 283kts
29-Sep-20 11:34 42.021235 -122.865102 173 22162ft 288kts
29-Sep-20 11:35 41.940728 -122.856774 173 22963ft 293kts
29-Sep-20 11:36 41.858621 -122.848312 173 23259ft 311kts
29-Sep-20 11:37 41.770076 -122.839199 173 23256ft 326kts
29-Sep-20 11:38 41.679115 -122.829861 173 23255ft 331kts
29-Sep-20 11:39 41.587039 -122.820435 173 23255ft 333kts
29-Sep-20 11:40 41.494504 -122.810988 173 23255ft 334kts
29-Sep-20 11:41 41.404319 -122.786794 160 23256ft 332kts
29-Sep-20 11:42 41.316572 -122.749139 159 23256ft 332kts
29-Sep-20 11:43 41.228791 -122.711496 159 23256ft 332kts
29-Sep-20 11:44 41.141135 -122.674012 159 23256ft 332kts
29-Sep-20 11:45 41.053571 -122.636642 163 23205ft 330kts
29-Sep-20 11:46 40.965705 -122.599322 163 23125ft 333kts
29-Sep-20 11:47 40.877912 -122.562084 163 23110ft 334kts
29-Sep-20 11:48 40.789267 -122.524600 163 23110ft 335kts
29-Sep-20 11:49 40.700620 -122.487226 163 23110ft 335kts
29-Sep-20 11:50 40.612092 -122.450014 163 23110ft 335kts
29-Sep-20 11:51 40.523539 -122.412911 163 23110ft 335kts
29-Sep-20 11:52 40.434680 -122.375766 163 23111ft 335kts
29-Sep-20 11:53 40.345958 -122.338779 163 23110ft 335kts
29-Sep-20 11:54 40.257217 -122.301884 164 23114ft 335kts
29-Sep-20 11:55 40.168669 -122.265174 163 23118ft 334kts
29-Sep-20 11:56 40.080511 -122.226578 159 23119ft 335kts
29-Sep-20 11:57 39.993820 -122.181129 159 23119ft 335kts
29-Sep-20 11:58 39.907421 -122.135890 159 23119ft 335kts
29-Sep-20 11:59 39.821799 -122.091184 159 22880ft 343kts
29-Sep-20 12:00 39.729176 -122.042958 159 21320ft 369kts
29-Sep-20 12:01 39.634119 -121.993593 159 19683ft 361kts
29-Sep-20 12:02 39.542320 -121.946068 159 18109ft 351kts
29-Sep-20 12:03 39.453209 -121.900061 159 16581ft 342kts
29-Sep-20 12:04 39.365420 -121.854902 159 15078ft 338kts
29-Sep-20 12:05 39.277050 -121.819079 167 13596ft 327kts
29-Sep-20 12:06 39.190589 -121.790975 167 12174ft 317kts
29-Sep-20 12:07 39.106612 -121.762063 162 11150ft 298kts
29-Sep-20 12:08 39.029995 -121.727428 161 9104ft 286kts
29-Sep-20 12:09 38.958217 -121.694754 161 7677ft 263kts
29-Sep-20 12:10 38.892959 -121.665127 159 6515ft 248kts
29-Sep-20 12:11 38.827763 -121.635568 159 5407ft 248kts
29-Sep-20 12:12 38.764035 -121.606733 158 4548ft 238kts
29-Sep-20 12:13 38.702923 -121.575698 151 3319ft 236kts
29-Sep-20 12:14 38.647135 -121.538161 146 2193ft 210kts
29-Sep-20 12:15 38.603475 -121.503215 146 1688ft 151kts
29-Sep-20 12:16 38.573415 -121.478309 143 1658ft 129kts
29-Sep-20 12:17 38.542980 -121.469534 204 1173ft 121kts
29-Sep-20 12:18 38.516878 -121.491072 213 32ft 91kts
29-Sep-20 12:19 38.511369 -121.496911 270 22ft 0kts
29-Sep-20 12:20 38.511711 -121.497707 20 22ft 14kts
29-Sep-20 12:21 38.514934 -121.498350 225 23ft 9kts
29-Sep-20 12:22 38.514859 -121.498428 217 23ft 0kts

Navigation Log

Ident Type
Flight plan parsing failed, navigation log unavailable